Date,TemperatureHighF,TemperatureAvgF,TemperatureLowF,DewpointHighF,DewpointAvgF,DewpointLowF,HumidityHigh,HumidityAvg,HumidityLow,PressureMaxIn,PressureMinIn,WindSpeedMaxMPH,WindSpeedAvgMPH,GustSpeedMaxMPH,PrecipitationSumIn
2013-1-1,16.9,7.6,-0.3,8.0,3.2,-2.0,92,82,64,30.29,30.18,5,1,9,0.00
2013-1-2,24.3,17.1,8.2,22.0,12.4,4.0,92,82,71,30.19,30.05,7,2,12,0.00
2013-1-3,27.2,19.7,8.7,26.0,16.7,7.0,95,88,80,30.30,30.09,16,4,19,0.00
2013-1-4,31.9,19.9,8.5,24.0,16.4,7.0,96,87,72,30.25,30.14,18,4,21,0.00
2013-1-5,36.1,26.0,11.3,34.0,24.2,10.0,99,93,81,30.20,29.91,13,3,20,0.11
2013-1-6,28.1,19.8,10.1,25.0,16.7,9.0,95,88,77,30.30,29.92,12,3,14,0.00
2013-1-7,38.3,28.3,9.1,29.0,23.1,8.0,99,82,66,30.28,30.03,17,4,25,0.00
2013-1-8,42.0,34.2,24.5,34.0,30.0,24.0,98,85,73,30.07,29.92,10,3,18,0.01
2013-1-9,40.3,33.4,21.9,33.0,29.0,22.0,98,84,66,30.45,29.96,18,4,23,0.00
2013-1-10,41.9,32.9,20.2,39.0,28.8,20.0,100,86,59,30.45,29.77,12,3,20,0.23
2013-1-11,52.5,43.7,38.2,49.0,43.2,38.0,100,98,86,29.77,29.54,12,3,22,0.04
2013-1-12,52.4,32.2,21.1,48.0,27.4,17.0,91,82,74,30.01,29.56,20,7,35,0.00
2013-1-13,21.3,14.9,10.5,16.0,9.6,7.0,84,79,73,30.28,29.91,15,6,20,0.00
2013-1-14,27.0,14.8,5.5,14.0,9.6,4.0,95,81,57,30.47,30.27,9,1,10,0.00
2013-1-15,30.4,19.3,8.8,18.0,13.7,8.0,96,80,58,30.42,30.09,8,2,13,0.00
2013-1-16,36.8,28.1,18.2,36.0,23.3,12.0,98,82,70,30.08,29.82,15,5,20,0.00
2013-1-17,32.8,24.1,17.6,28.0,16.4,10.0,91,74,54,30.38,30.08,11,3,17,0.00
2013-1-18,48.1,35.4,18.8,36.0,28.8,17.0,92,77,63,30.39,29.84,20,6,31,0.00
2013-1-19,49.1,37.7,15.9,38.0,30.7,7.0,87,76,57,30.05,29.68,23,6,36,0.00
2013-1-20,16.4,11.6,6.9,6.0,3.8,1.0,79,71,57,30.34,30.06,15,5,25,0.00
2013-1-21,11.3,4.6,-0.7,6.0,-4.2,-9.0,84,68,55,30.32,30.20,16,6,21,0.00
2013-1-22,10.2,4.3,-5.0,2.0,-3.3,-9.0,86,71,59,30.43,30.34,10,2,16,0.00
2013-1-23,23.1,14.4,6.3,17.0,8.5,-1.0,90,77,66,30.45,30.12,15,4,25,0.00
2013-1-24,19.7,9.4,0.1,11.0,1.2,-6.0,78,70,59,30.67,30.31,8,2,15,0.00
2013-1-25,30.1,21.8,13.4,21.0,13.8,8.0,87,72,61,30.29,29.96,18,5,26,0.00
2013-1-26,27.4,18.6,4.6,17.0,10.1,2.0,92,71,52,30.40,30.24,5,2,11,0.00
2013-1-27,37.2,30.1,25.6,37.0,26.3,17.0,100,86,68,30.30,29.78,14,4,18,0.01
2013-1-28,44.8,40.3,36.2,44.0,39.3,36.0,100,96,85,29.91,29.65,12,3,13,0.40
2013-1-29,58.8,46.5,34.4,57.0,46.2,34.0,100,99,89,29.66,29.44,18,4,22,1.03
2013-1-30,34.4,26.6,15.5,34.0,25.8,12.0,100,97,85,29.69,29.29,12,6,24,0.07
2013-1-31,15.3,6.8,-2.3,13.0,3.1,-6.0,91,85,78,30.26,29.69,14,7,21,0.00